createdAt,value
2023-01-04T00:00:18.729Z, 36.26
2023-01-04T00:01:18.686Z, 36.23
2023-01-04T00:02:18.825Z, 36.23
2023-01-04T00:03:18.811Z, 36.23
2023-01-04T00:04:18.777Z, 36.20
2023-01-04T00:05:18.802Z, 36.20
2023-01-04T00:06:18.790Z, 36.21
2023-01-04T00:07:18.788Z, 36.16
2023-01-04T00:08:18.785Z, 36.13
2023-01-04T00:09:18.853Z, 36.07
2023-01-04T00:10:18.826Z, 36.13
2023-01-04T00:11:18.879Z, 36.12
2023-01-04T00:12:18.832Z, 36.11
2023-01-04T00:13:18.871Z, 36.10
2023-01-04T00:14:18.838Z, 36.04
2023-01-04T00:15:18.845Z, 36.05
2023-01-04T00:16:18.912Z, 36.03
2023-01-04T00:17:18.866Z, 36.06
2023-01-04T00:18:18.880Z, 36.09
2023-01-04T00:19:18.919Z, 36.05
2023-01-04T00:20:18.918Z, 35.97
2023-01-04T00:21:18.921Z, 35.95
2023-01-04T00:22:18.993Z, 35.91
2023-01-04T00:23:18.980Z, 35.93
2023-01-04T00:24:18.999Z, 35.89
2023-01-04T00:25:18.979Z, 35.83
2023-01-04T00:26:19.061Z, 35.85
2023-01-04T00:27:19.028Z, 35.85
2023-01-04T00:28:19.068Z, 35.83
2023-01-04T00:29:19.037Z, 35.81
2023-01-04T00:30:19.047Z, 35.77
2023-01-04T00:31:19.099Z, 35.81
2023-01-04T00:32:19.039Z, 35.83
2023-01-04T00:33:19.045Z, 35.79
2023-01-04T00:34:19.057Z, 35.80
2023-01-04T00:35:44.208Z, 35.77
2023-01-04T00:36:19.115Z, 35.71
2023-01-04T00:37:19.194Z, 35.67
2023-01-04T00:38:19.144Z, 35.67
2023-01-04T00:39:19.147Z, 35.65
2023-01-04T00:40:19.147Z, 35.66
2023-01-04T00:41:49.163Z, 35.63
2023-01-04T00:42:19.160Z, 35.62
2023-01-04T00:43:19.166Z, 35.65
2023-01-04T00:44:19.243Z, 35.65
2023-01-04T00:45:19.247Z, 35.60
2023-01-04T00:46:19.321Z, 35.56
2023-01-04T00:47:19.221Z, 35.50
2023-01-04T00:48:19.235Z, 35.51
2023-01-04T00:49:19.263Z, 35.47
2023-01-04T00:50:19.254Z, 35.46
2023-01-04T00:51:19.270Z, 35.49
2023-01-04T00:52:19.269Z, 35.49
2023-01-04T00:53:19.288Z, 35.43
2023-01-04T00:54:19.303Z, 35.47
2023-01-04T00:55:19.296Z, 35.43
2023-01-04T00:56:19.311Z, 35.38
2023-01-04T00:57:19.323Z, 35.37
2023-01-04T00:58:19.405Z, 35.36
2023-01-04T00:59:19.415Z, 35.38
2023-01-04T01:00:19.421Z, 35.34
2023-01-04T01:01:19.509Z, 35.33
2023-01-04T01:02:19.644Z, 35.30
2023-01-04T01:03:19.571Z, 35.29
2023-01-04T01:04:19.621Z, 35.28
2023-01-04T01:05:19.456Z, 35.27
2023-01-04T01:06:19.464Z, 35.25
2023-01-04T01:07:19.467Z, 35.24
2023-01-04T01:08:19.454Z, 35.23
2023-01-04T01:09:19.507Z, 35.26
2023-01-04T01:10:19.470Z, 35.20
2023-01-04T01:11:19.539Z, 35.18
2023-01-04T01:12:19.530Z, 35.16
2023-01-04T01:13:19.536Z, 35.10
2023-01-04T01:14:19.552Z, 35.12
2023-01-04T01:15:19.548Z, 35.14
2023-01-04T01:16:37.924Z, 35.08
2023-01-04T01:17:19.553Z, 35.09
2023-01-04T01:18:19.553Z, 35.05
2023-01-04T01:19:19.570Z, 34.97
2023-01-04T01:20:19.586Z, 35.00
2023-01-04T01:21:19.584Z, 35.02
2023-01-04T01:22:19.641Z, 34.98
2023-01-04T01:23:19.593Z, 34.98
2023-01-04T01:24:19.714Z, 35.00
2023-01-04T01:25:19.665Z, 35.00
2023-01-04T01:26:19.661Z, 34.94
2023-01-04T01:27:19.665Z, 34.90
2023-01-04T01:28:19.666Z, 34.91
2023-01-04T01:29:19.724Z, 34.89
2023-01-04T01:30:19.676Z, 34.85
2023-01-04T01:31:19.835Z, 34.85
2023-01-04T01:32:19.751Z, 34.80
2023-01-04T01:33:19.777Z, 34.78
2023-01-04T01:34:19.761Z, 34.77
2023-01-04T01:35:19.757Z, 34.74
2023-01-04T01:36:19.746Z, 34.73
2023-01-04T01:37:19.754Z, 34.75
2023-01-04T01:38:19.821Z, 34.74
2023-01-04T01:39:19.821Z, 34.77
2023-01-04T01:40:19.808Z, 34.74
2023-01-04T01:41:19.810Z, 34.74
2023-01-04T01:42:19.827Z, 34.68
2023-01-04T01:43:19.887Z, 34.60
2023-01-04T01:44:19.875Z, 34.63
2023-01-04T01:45:19.887Z, 34.63
2023-01-04T01:46:19.923Z, 34.59
2023-01-04T01:47:19.923Z, 34.62
2023-01-04T01:48:19.927Z, 34.63
2023-01-04T01:49:19.913Z, 34.61
2023-01-04T01:50:19.915Z, 34.57
2023-01-04T01:51:19.910Z, 34.57
2023-01-04T01:52:19.937Z, 34.53
2023-01-04T01:53:19.911Z, 34.54
2023-01-04T01:54:19.998Z, 34.51
2023-01-04T01:55:19.950Z, 34.51
2023-01-04T01:56:20.012Z, 34.49
2023-01-04T01:57:19.987Z, 34.46
2023-01-04T01:58:19.973Z, 34.46
2023-01-04T01:59:20.025Z, 34.53
2023-01-04T02:00:20.011Z, 34.51
2023-01-04T02:01:20.220Z, 34.45
2023-01-04T02:02:20.285Z, 34.45
2023-01-04T02:03:20.155Z, 34.45
2023-01-04T02:04:20.072Z, 34.46
2023-01-04T02:05:20.038Z, 34.48
2023-01-04T02:06:20.040Z, 34.44
2023-01-04T02:07:20.046Z, 34.40
2023-01-04T02:08:20.061Z, 34.41
2023-01-04T02:09:20.060Z, 34.41
2023-01-04T02:10:20.164Z, 34.39
2023-01-04T02:11:20.122Z, 34.40
2023-01-04T02:12:20.172Z, 34.38
2023-01-04T02:13:20.141Z, 34.39
2023-01-04T02:14:20.222Z, 34.39
2023-01-04T02:15:20.172Z, 34.33
2023-01-04T02:16:20.315Z, 34.33
2023-01-04T02:17:20.166Z, 34.27
2023-01-04T02:18:20.169Z, 34.26
2023-01-04T02:19:20.248Z, 34.27
2023-01-04T02:20:20.223Z, 34.25
2023-01-04T02:21:20.218Z, 34.28
2023-01-04T02:22:20.218Z, 34.24
2023-01-04T02:23:20.226Z, 34.23
2023-01-04T02:24:20.293Z, 34.17
2023-01-04T02:25:20.269Z, 34.19
2023-01-04T02:26:20.320Z, 34.19
2023-01-04T02:27:20.296Z, 34.17
2023-01-04T02:28:20.298Z, 34.18
2023-01-04T02:29:20.285Z, 34.13
2023-01-04T02:30:20.313Z, 34.14
2023-01-04T02:31:20.371Z, 34.10
2023-01-04T02:32:20.305Z, 34.11
2023-01-04T02:33:20.332Z, 34.05
2023-01-04T02:34:20.417Z, 34.02
2023-01-04T02:35:20.447Z, 34.05
2023-01-04T02:36:20.415Z, 33.98
2023-01-04T02:37:20.415Z, 34.00
2023-01-04T02:38:20.477Z, 34.00
2023-01-04T02:39:20.419Z, 34.00
2023-01-04T02:40:20.505Z, 33.99
2023-01-04T02:41:20.468Z, 33.99
2023-01-04T02:42:20.543Z, 33.99
2023-01-04T02:43:20.518Z, 33.99
2023-01-04T02:44:20.522Z, 33.95
2023-01-04T02:45:20.575Z, 33.89
2023-01-04T02:46:20.590Z, 33.94
2023-01-04T02:47:20.530Z, 33.91
2023-01-04T02:48:20.619Z, 33.89
2023-01-04T02:49:20.589Z, 33.89
2023-01-04T02:50:20.582Z, 33.90
2023-01-04T02:51:20.585Z, 33.90
2023-01-04T02:52:20.663Z, 33.91
2023-01-04T02:53:20.649Z, 33.82
2023-01-04T02:54:20.634Z, 33.77
2023-01-04T02:55:20.633Z, 33.77
2023-01-04T02:56:20.722Z, 33.76
2023-01-04T02:57:20.752Z, 33.80
2023-01-04T02:58:20.724Z, 33.81
2023-01-04T02:59:20.751Z, 33.84
2023-01-04T03:00:20.733Z, 33.83
2023-01-04T03:01:20.929Z, 33.80
2023-01-04T03:02:20.887Z, 33.77
2023-01-04T03:03:21.024Z, 33.76
2023-01-04T03:04:20.791Z, 33.70
2023-01-04T03:05:20.780Z, 33.71
2023-01-04T03:06:20.788Z, 33.74
2023-01-04T03:07:20.797Z, 33.74
2023-01-04T03:08:20.885Z, 33.72
2023-01-04T03:09:20.877Z, 33.70
2023-01-04T03:10:20.918Z, 33.66
2023-01-04T03:11:20.893Z, 33.60
2023-01-04T03:12:20.959Z, 33.64
2023-01-04T03:13:20.932Z, 33.66
2023-01-04T03:14:32.369Z, 33.64
2023-01-04T03:15:20.988Z, 33.64
2023-01-04T03:16:21.094Z, 33.62
2023-01-04T03:17:21.019Z, 33.61
2023-01-04T03:18:20.976Z, 33.60
2023-01-04T03:19:21.045Z, 33.58
2023-01-04T03:20:21.014Z, 33.54
2023-01-04T03:21:21.020Z, 33.58
2023-01-04T03:22:21.022Z, 33.49
2023-01-04T03:23:21.033Z, 33.52
2023-01-04T03:24:21.148Z, 33.53
2023-01-04T03:25:21.111Z, 33.52
2023-01-04T03:26:21.204Z, 33.51
2023-01-04T03:27:21.147Z, 33.54
2023-01-04T03:28:21.146Z, 33.49
2023-01-04T03:29:21.148Z, 33.48
2023-01-04T03:30:21.153Z, 33.48
2023-01-04T03:31:21.330Z, 33.44
2023-01-04T03:32:21.206Z, 33.43
2023-01-04T03:33:21.205Z, 33.43
2023-01-04T03:34:21.219Z, 33.41
2023-01-04T03:35:21.226Z, 33.39
2023-01-04T03:36:21.308Z, 33.38
2023-01-04T03:37:21.300Z, 33.39
2023-01-04T03:38:21.325Z, 33.40
2023-01-04T03:39:21.306Z, 33.37
2023-01-04T03:40:21.346Z, 33.36
2023-01-04T03:41:21.328Z, 33.36
2023-01-04T03:42:21.341Z, 33.31
2023-01-04T03:43:21.400Z, 33.30
2023-01-04T03:44:21.379Z, 33.31
2023-01-04T03:45:21.369Z, 33.32
2023-01-04T03:46:21.432Z, 33.31
2023-01-04T03:47:21.384Z, 33.30
2023-01-04T03:48:21.440Z, 33.35
2023-01-04T03:49:21.414Z, 33.30
2023-01-04T03:50:21.499Z, 33.25
2023-01-04T03:51:21.464Z, 33.24
2023-01-04T03:52:21.493Z, 33.22
2023-01-04T03:53:21.472Z, 33.18
2023-01-04T03:54:21.526Z, 33.16
2023-01-04T03:55:21.521Z, 33.15
2023-01-04T03:56:21.498Z, 33.18
2023-01-04T03:57:21.555Z, 33.20
2023-01-04T03:58:21.534Z, 33.18
2023-01-04T03:59:21.562Z, 33.20
2023-01-04T04:00:21.665Z, 33.22
2023-01-04T04:01:21.898Z, 33.18
2023-01-04T04:02:21.770Z, 33.16
2023-01-04T04:03:21.646Z, 33.16
2023-01-04T04:04:21.755Z, 33.16
2023-01-04T04:05:21.644Z, 33.12
2023-01-04T04:06:21.654Z, 33.12
2023-01-04T04:07:21.666Z, 33.09
2023-01-04T04:08:21.674Z, 33.10
2023-01-04T04:09:21.690Z, 33.07
2023-01-04T04:10:21.798Z, 33.03
2023-01-04T04:11:21.767Z, 33.06
2023-01-04T04:12:21.802Z, 33.06
2023-01-04T04:13:21.790Z, 33.05
2023-01-04T04:14:21.820Z, 33.03
2023-01-04T04:15:21.795Z, 33.02
2023-01-04T04:16:21.903Z, 33.00
2023-01-04T04:17:21.853Z, 33.02
2023-01-04T04:18:21.849Z, 32.98
2023-01-04T04:19:21.848Z, 32.96
2023-01-04T04:20:21.908Z, 32.97
2023-01-04T04:21:21.877Z, 33.00
2023-01-04T04:22:21.908Z, 32.97
2023-01-04T04:23:21.898Z, 32.94
2023-01-04T04:24:21.902Z, 32.91
2023-01-04T04:25:21.967Z, 32.87
2023-01-04T04:26:21.947Z, 32.87
2023-01-04T04:27:21.953Z, 32.87
2023-01-04T04:28:22.050Z, 32.86
2023-01-04T04:29:22.046Z, 32.83
2023-01-04T04:30:22.047Z, 32.84
2023-01-04T04:31:22.065Z, 33.18
2023-01-04T04:32:22.089Z, 34.34
2023-01-04T04:33:22.055Z, 34.66
2023-01-04T04:34:22.066Z, 34.69
2023-01-04T04:35:22.079Z, 34.68
2023-01-04T04:36:22.127Z, 34.63
2023-01-04T04:37:22.093Z, 34.58
2023-01-04T04:38:22.113Z, 34.50
2023-01-04T04:39:22.112Z, 34.45
2023-01-04T04:40:22.194Z, 34.32
2023-01-04T04:41:22.199Z, 34.19
2023-01-04T04:42:22.163Z, 33.89
2023-01-04T04:43:22.182Z, 37.00
2023-01-04T04:44:22.179Z, 42.22
2023-01-04T04:45:22.245Z, 45.91
2023-01-04T04:46:22.313Z, 47.93
2023-01-04T04:47:22.245Z, 46.70
2023-01-04T04:48:22.239Z, 43.81
2023-01-04T04:49:22.251Z, 40.89
2023-01-04T04:50:22.273Z, 38.24
2023-01-04T04:51:22.361Z, 35.29
2023-01-04T04:52:22.331Z, 31.56
2023-01-04T04:53:22.329Z, 28.39
2023-01-04T04:54:22.335Z, 31.17
2023-01-04T04:55:22.429Z, 36.44
2023-01-04T04:56:22.382Z, 40.66
2023-01-04T04:57:22.439Z, 43.66
2023-01-04T04:58:22.407Z, 46.12
2023-01-04T04:59:22.451Z, 48.04
2023-01-04T05:00:22.431Z, 49.17
2023-01-04T05:01:22.574Z, 47.94
2023-01-04T05:02:22.847Z, 45.68
2023-01-04T05:03:22.593Z, 43.58
2023-01-04T05:04:22.499Z, 41.61
2023-01-04T05:05:22.484Z, 39.77
2023-01-04T05:06:22.513Z, 38.01
2023-01-04T05:07:22.591Z, 36.13
2023-01-04T05:08:22.558Z, 33.86
2023-01-04T05:09:22.613Z, 32.08
2023-01-04T05:10:22.580Z, 36.14
2023-01-04T05:11:22.626Z, 43.65
2023-01-04T05:12:22.597Z, 48.91
2023-01-04T05:13:22.615Z, 52.32
2023-01-04T05:14:22.610Z, 53.09
2023-01-04T05:15:22.658Z, 52.00
2023-01-04T05:16:22.716Z, 51.25
2023-01-04T05:17:22.730Z, 50.37
2023-01-04T05:18:22.731Z, 49.59
2023-01-04T05:19:22.699Z, 48.84
2023-01-04T05:20:22.694Z, 48.13
2023-01-04T05:21:22.731Z, 47.41
2023-01-04T05:22:22.778Z, 46.79
2023-01-04T05:23:22.762Z, 46.17
2023-01-04T05:24:22.760Z, 45.50
2023-01-04T05:25:22.859Z, 44.82
2023-01-04T05:26:22.836Z, 44.13
2023-01-04T05:27:22.872Z, 43.49
2023-01-04T05:28:22.856Z, 42.94
2023-01-04T05:29:22.853Z, 42.43
2023-01-04T05:30:22.847Z, 41.94
2023-01-04T05:31:22.902Z, 41.37
2023-01-04T05:32:22.876Z, 40.89
2023-01-04T05:33:22.891Z, 43.66
2023-01-04T05:34:22.910Z, 50.72
2023-01-04T05:35:22.923Z, 55.23
2023-01-04T05:36:23.026Z, 56.25
2023-01-04T05:37:22.993Z, 55.40
2023-01-04T05:38:22.991Z, 54.29
2023-01-04T05:39:23.006Z, 53.18
2023-01-04T05:40:23.001Z, 52.21
2023-01-04T05:41:23.027Z, 51.36
2023-01-04T05:42:23.018Z, 50.60
2023-01-04T05:43:23.102Z, 49.93
2023-01-04T05:44:23.052Z, 49.42
2023-01-04T05:45:23.063Z, 48.92
2023-01-04T05:46:23.193Z, 48.57
2023-01-04T05:47:23.104Z, 48.45
2023-01-04T05:48:23.184Z, 48.24
2023-01-04T05:49:23.144Z, 47.80
2023-01-04T05:50:23.151Z, 47.33
2023-01-04T05:51:23.161Z, 46.82
2023-01-04T05:52:23.176Z, 46.37
2023-01-04T05:53:23.310Z, 45.96
2023-01-04T05:54:23.196Z, 45.57
2023-01-04T05:55:23.200Z, 45.24
2023-01-04T05:56:23.293Z, 44.94
2023-01-04T05:57:23.255Z, 44.70
2023-01-04T05:58:23.264Z, 44.48
2023-01-04T05:59:23.351Z, 44.34
2023-01-04T06:00:23.307Z, 44.15
2023-01-04T06:01:23.424Z, 43.95
2023-01-04T06:02:23.495Z, 43.69
2023-01-04T06:03:23.475Z, 43.44
2023-01-04T06:04:23.412Z, 43.21
2023-01-04T06:05:23.370Z, 42.99
2023-01-04T06:06:23.434Z, 42.77
2023-01-04T06:07:23.427Z, 42.57
2023-01-04T06:08:23.441Z, 42.35
2023-01-04T06:09:23.434Z, 42.16
2023-01-04T06:10:23.503Z, 41.97
2023-01-04T06:11:27.530Z, 41.78
2023-01-04T06:12:23.468Z, 41.62
2023-01-04T06:13:23.503Z, 41.44
2023-01-04T06:14:23.476Z, 41.27
2023-01-04T06:15:23.572Z, 41.11
2023-01-04T06:16:23.563Z, 40.89
2023-01-04T06:17:23.605Z, 40.71
2023-01-04T06:18:23.688Z, 40.55
2023-01-04T06:19:23.631Z, 40.39
2023-01-04T06:20:23.583Z, 40.16
2023-01-04T06:21:23.650Z, 39.93
2023-01-04T06:22:23.618Z, 39.75
2023-01-04T06:23:23.672Z, 39.53
2023-01-04T06:24:23.644Z, 39.36
2023-01-04T06:25:23.637Z, 39.19
2023-01-04T06:26:23.669Z, 39.05
2023-01-04T06:27:23.662Z, 38.92
2023-01-04T06:28:23.744Z, 38.80
2023-01-04T06:29:23.738Z, 38.68
2023-01-04T06:30:23.781Z, 38.59
2023-01-04T06:31:23.856Z, 38.47
2023-01-04T06:32:23.833Z, 38.37
2023-01-04T06:33:23.800Z, 38.27
2023-01-04T06:34:30.218Z, 38.25
2023-01-04T06:35:23.799Z, 38.20
2023-01-04T06:36:23.863Z, 38.14
2023-01-04T06:37:23.881Z, 38.05
2023-01-04T06:38:23.900Z, 37.97
2023-01-04T06:39:23.921Z, 37.88
2023-01-04T06:40:23.865Z, 37.74
2023-01-04T06:41:23.945Z, 39.32
2023-01-04T06:42:23.884Z, 43.05
2023-01-04T06:43:23.901Z, 46.93
2023-01-04T06:44:23.911Z, 50.71
2023-01-04T06:45:23.992Z, 55.32
2023-01-04T06:46:24.146Z, 59.34
2023-01-04T06:47:23.973Z, 70.07
2023-01-04T06:48:23.967Z, 56.65
2023-01-04T06:49:23.992Z, 52.50
2023-01-04T06:50:24.073Z, 53.53
2023-01-04T06:51:24.061Z, 54.61
2023-01-04T06:52:24.069Z, 57.01
2023-01-04T06:53:24.048Z, 60.53
2023-01-04T06:54:24.050Z, 68.63
2023-01-04T06:55:24.059Z, 55.30
2023-01-04T06:56:24.089Z, 53.81
2023-01-04T06:57:24.183Z, 54.77
2023-01-04T06:58:24.142Z, 56.18
2023-01-04T06:59:24.143Z, 57.18
2023-01-04T07:00:24.212Z, 58.03
2023-01-04T07:01:24.462Z, 58.68
2023-01-04T07:02:24.329Z, 59.03
2023-01-04T07:03:24.210Z, 59.09
2023-01-04T07:04:24.249Z, 59.21
2023-01-04T07:05:24.215Z, 59.32
2023-01-04T07:06:24.238Z, 59.30
2023-01-04T07:07:24.327Z, 59.18
2023-01-04T07:08:24.284Z, 59.17
2023-01-04T07:09:24.331Z, 59.05
2023-01-04T07:10:24.304Z, 59.01
2023-01-04T07:11:24.374Z, 58.81
2023-01-04T07:12:24.406Z, 58.85
2023-01-04T07:13:24.367Z, 58.65
2023-01-04T07:14:24.389Z, 58.56
2023-01-04T07:15:38.594Z, 58.43
2023-01-04T07:16:24.590Z, 58.21
2023-01-04T07:17:29.705Z, 58.04
2023-01-04T07:18:24.478Z, 57.98
2023-01-04T07:19:24.457Z, 57.77
2023-01-04T07:20:24.447Z, 57.62
2023-01-04T07:21:24.459Z, 57.52
2023-01-04T07:22:24.481Z, 57.31
2023-01-04T07:23:24.482Z, 57.19
2023-01-04T07:24:29.742Z, 57.07
2023-01-04T07:25:24.510Z, 56.92
2023-01-04T07:26:24.519Z, 56.70
2023-01-04T07:27:24.616Z, 56.60
2023-01-04T07:28:24.581Z, 56.47
2023-01-04T07:29:24.657Z, 56.27
2023-01-04T07:30:24.612Z, 56.10
2023-01-04T07:31:24.694Z, 56.03
2023-01-04T07:32:24.616Z, 55.89
2023-01-04T07:33:24.693Z, 55.80
2023-01-04T07:34:24.664Z, 55.72
2023-01-04T07:35:24.689Z, 55.61
2023-01-04T07:36:24.679Z, 55.49
2023-01-04T07:37:24.667Z, 55.40
2023-01-04T07:38:24.739Z, 55.24
2023-01-04T07:39:24.713Z, 55.05
2023-01-04T07:40:24.758Z, 54.87
2023-01-04T07:41:24.752Z, 54.88
2023-01-04T07:42:24.827Z, 54.71
2023-01-04T07:43:28.164Z, 54.63
2023-01-04T07:44:24.814Z, 54.45
2023-01-04T07:45:24.811Z, 54.33
2023-01-04T07:46:24.897Z, 54.15
2023-01-04T07:47:24.902Z, 54.05
2023-01-04T07:48:24.873Z, 53.93
2023-01-04T07:49:24.934Z, 53.88
2023-01-04T07:50:24.893Z, 53.82
2023-01-04T07:51:24.974Z, 53.60
2023-01-04T07:52:24.952Z, 53.49
2023-01-04T07:53:24.942Z, 53.39
2023-01-04T07:54:24.962Z, 53.40
2023-01-04T07:55:24.970Z, 53.20
2023-01-04T07:56:25.012Z, 53.07
2023-01-04T07:57:25.006Z, 52.97
2023-01-04T07:58:25.083Z, 52.96
2023-01-04T07:59:25.044Z, 52.88
2023-01-04T08:00:25.080Z, 52.77
2023-01-04T08:01:25.234Z, 52.72
2023-01-04T08:02:25.252Z, 52.66
2023-01-04T08:03:25.167Z, 52.59
2023-01-04T08:04:29.616Z, 52.35
2023-01-04T08:05:25.139Z, 52.24
2023-01-04T08:06:25.157Z, 52.30
2023-01-04T08:07:25.146Z, 53.48
2023-01-04T08:08:25.229Z, 54.64
2023-01-04T08:09:25.194Z, 54.58
2023-01-04T08:10:25.201Z, 53.71
2023-01-04T08:11:25.211Z, 52.07
2023-01-04T08:12:25.206Z, 50.52
2023-01-04T08:13:25.302Z, 48.68
2023-01-04T08:14:25.312Z, 46.77
2023-01-04T08:15:25.275Z, 44.70
2023-01-04T08:16:25.375Z, 42.91
2023-01-04T08:17:25.274Z, 41.38
2023-01-04T08:18:25.392Z, 40.18
2023-01-04T08:19:25.356Z, 39.16
2023-01-04T08:20:25.348Z, 38.06
2023-01-04T08:21:25.357Z, 36.36
2023-01-04T08:22:25.349Z, 34.08
2023-01-04T08:23:25.374Z, 37.36
2023-01-04T08:24:25.391Z, 42.28
2023-01-04T08:25:25.495Z, 46.14
2023-01-04T08:26:25.494Z, 48.40
2023-01-04T08:27:25.505Z, 50.68
2023-01-04T08:28:25.474Z, 51.77
2023-01-04T08:29:29.602Z, 51.28
2023-01-04T08:30:25.570Z, 50.58
2023-01-04T08:31:25.610Z, 50.15
2023-01-04T08:32:25.528Z, 49.82
2023-01-04T08:33:25.538Z, 49.52
2023-01-04T08:34:25.603Z, 49.25
2023-01-04T08:35:25.555Z, 48.98
2023-01-04T08:36:27.611Z, 48.73
2023-01-04T08:37:25.607Z, 48.49
2023-01-04T08:39:25.645Z, 48.07
2023-01-04T08:40:25.686Z, 47.90
2023-01-04T08:41:56.016Z, 47.68
2023-01-04T08:42:31.269Z, 47.49
2023-01-04T08:43:25.657Z, 47.29
2023-01-04T08:44:25.687Z, 47.12
2023-01-04T08:45:25.685Z, 46.97
2023-01-04T08:46:25.789Z, 46.83
2023-01-04T08:47:25.821Z, 46.62
2023-01-04T08:48:25.768Z, 46.45
2023-01-04T08:49:25.796Z, 46.33
2023-01-04T08:50:25.812Z, 46.16
2023-01-04T08:51:25.857Z, 46.01
2023-01-04T08:52:25.823Z, 45.87
2023-01-04T08:53:25.879Z, 45.70
2023-01-04T08:54:25.875Z, 45.52
2023-01-04T08:55:25.894Z, 45.40
2023-01-04T08:56:25.874Z, 45.25
2023-01-04T08:57:25.923Z, 45.13
2023-01-04T08:58:25.908Z, 44.98
2023-01-04T08:59:25.907Z, 44.87
2023-01-04T09:00:26.015Z, 44.73
2023-01-04T09:01:26.176Z, 44.61
2023-01-04T09:02:26.149Z, 44.50
2023-01-04T09:03:26.028Z, 44.36
2023-01-04T09:04:26.092Z, 44.22
2023-01-04T09:05:26.032Z, 44.08
2023-01-04T09:06:26.019Z, 43.96
2023-01-04T09:07:26.033Z, 43.85
2023-01-04T09:08:26.023Z, 43.72
2023-01-04T09:09:26.107Z, 43.57
2023-01-04T09:10:26.098Z, 43.49
2023-01-04T09:11:26.156Z, 43.42
2023-01-04T09:12:26.175Z, 43.34
2023-01-04T09:13:26.128Z, 43.22
2023-01-04T09:14:26.130Z, 43.07
2023-01-04T09:15:26.137Z, 43.00
2023-01-04T09:16:26.271Z, 42.88
2023-01-04T09:17:26.259Z, 42.74
2023-01-04T09:18:32.430Z, 42.65
2023-01-04T09:19:26.174Z, 42.57
2023-01-04T09:20:26.219Z, 42.47
2023-01-04T09:21:26.232Z, 42.37
2023-01-04T09:22:26.375Z, 42.30
2023-01-04T09:23:26.275Z, 42.24
2023-01-04T09:24:26.306Z, 42.10
2023-01-04T09:25:26.297Z, 42.01
2023-01-04T09:26:26.308Z, 41.94
2023-01-04T09:27:26.303Z, 41.85
2023-01-04T09:28:26.312Z, 41.76
2023-01-04T09:29:26.318Z, 41.68
2023-01-04T09:30:26.333Z, 41.59
2023-01-04T09:31:26.528Z, 41.49
2023-01-04T09:32:26.375Z, 41.45
2023-01-04T09:33:47.676Z, 41.39
2023-01-04T09:34:26.451Z, 41.30
2023-01-04T09:35:26.497Z, 41.19
2023-01-04T09:36:26.457Z, 41.06
2023-01-04T09:37:26.453Z, 41.05
2023-01-04T09:38:26.456Z, 40.99
2023-01-04T09:39:26.534Z, 40.91
2023-01-04T09:40:26.559Z, 40.86
2023-01-04T09:41:26.546Z, 40.82
2023-01-04T09:42:30.329Z, 40.76
2023-01-04T09:43:26.525Z, 40.68
2023-01-04T09:44:46.323Z, 40.58
2023-01-04T09:45:26.641Z, 40.56
2023-01-04T09:46:26.712Z, 40.49
2023-01-04T09:47:26.671Z, 40.39
2023-01-04T09:48:26.746Z, 40.36
2023-01-04T09:49:26.675Z, 40.33
2023-01-04T09:50:26.652Z, 40.27
2023-01-04T09:51:26.661Z, 40.23
2023-01-04T09:52:26.658Z, 40.15
2023-01-04T09:53:26.665Z, 40.06
2023-01-04T09:55:39.099Z, 39.95
2023-01-04T09:56:26.721Z, 39.89
2023-01-04T09:57:26.722Z, 39.81
2023-01-04T09:58:26.816Z, 39.73
2023-01-04T09:59:26.775Z, 39.68
2023-01-04T10:00:26.895Z, 39.66
2023-01-04T10:01:26.995Z, 39.61
2023-01-04T10:02:27.132Z, 39.56
2023-01-04T10:03:26.961Z, 39.51
2023-01-04T10:04:26.820Z, 39.41
2023-01-04T10:05:26.840Z, 39.34
2023-01-04T10:06:26.861Z, 39.29
2023-01-04T10:07:26.886Z, 39.30
2023-01-04T10:08:26.891Z, 39.25
2023-01-04T10:09:26.955Z, 39.22
2023-01-04T10:10:26.977Z, 39.14
2023-01-04T10:11:26.948Z, 39.08
2023-01-04T10:12:27.021Z, 39.06
2023-01-04T10:13:26.990Z, 39.04
2023-01-04T10:14:27.031Z, 38.98
2023-01-04T10:15:27.009Z, 38.89
2023-01-04T10:17:01.158Z, 38.90
2023-01-04T10:17:47.046Z, 38.88
2023-01-04T10:21:10.258Z, 38.76
2023-01-04T10:21:23.277Z, 38.73
2023-01-04T10:21:33.552Z, 38.71
2023-01-04T10:22:27.163Z, 38.61
2023-01-04T10:23:27.132Z, 38.58
2023-01-04T10:24:27.193Z, 38.54
2023-01-04T10:25:27.212Z, 38.48
2023-01-04T10:26:27.184Z, 38.46
2023-01-04T10:27:27.169Z, 38.43
2023-01-04T10:28:27.171Z, 38.35
2023-01-04T10:29:27.185Z, 38.30
2023-01-04T10:30:27.203Z, 38.25
2023-01-04T10:31:40.100Z, 38.27
2023-01-04T10:32:27.287Z, 38.20
2023-01-04T10:33:27.241Z, 38.23
2023-01-04T10:34:27.248Z, 38.16
2023-01-04T10:35:27.368Z, 38.07
2023-01-04T10:36:27.331Z, 38.05
2023-01-04T10:37:27.375Z, 38.06
2023-01-04T10:38:27.357Z, 38.01
2023-01-04T10:39:32.272Z, 37.90
2023-01-04T10:40:27.378Z, 37.89
2023-01-04T10:41:27.454Z, 37.88
2023-01-04T10:42:27.423Z, 37.79
2023-01-04T10:43:27.421Z, 37.73
2023-01-04T10:44:27.440Z, 37.70
2023-01-04T10:45:27.442Z, 37.67
2023-01-04T10:46:27.679Z, 37.59
2023-01-04T10:47:27.486Z, 37.56
2023-01-04T10:48:27.517Z, 37.51
2023-01-04T10:49:27.479Z, 37.55
2023-01-04T10:50:27.502Z, 37.51
2023-01-04T10:51:27.620Z, 37.45
2023-01-04T10:52:27.598Z, 37.37
2023-01-04T10:53:27.629Z, 37.34
2023-01-04T10:54:27.596Z, 37.34
2023-01-04T10:55:27.661Z, 37.31
2023-01-04T10:56:27.798Z, 37.30
2023-01-04T10:57:27.602Z, 37.24
2023-01-04T10:58:27.702Z, 37.24
2023-01-04T10:59:27.659Z, 37.20
2023-01-04T11:00:27.658Z, 37.19
2023-01-04T11:01:27.806Z, 37.73
2023-01-04T11:02:27.898Z, 38.74
2023-01-04T11:03:27.788Z, 38.87
2023-01-04T11:04:27.757Z, 38.45
2023-01-04T11:05:27.736Z, 37.35
2023-01-04T11:06:27.769Z, 35.68
2023-01-04T11:07:27.758Z, 33.80
2023-01-04T11:08:27.780Z, 34.39
2023-01-04T11:09:27.799Z, 38.77
2023-01-04T11:10:27.820Z, 42.13
2023-01-04T11:11:27.840Z, 43.70
2023-01-04T11:12:27.818Z, 44.89
2023-01-04T11:13:27.879Z, 45.57
2023-01-04T11:14:33.345Z, 43.39
2023-01-04T11:15:27.878Z, 40.46
2023-01-04T11:16:27.965Z, 37.57
2023-01-04T11:17:27.907Z, 35.05
2023-01-04T11:18:27.990Z, 31.93
2023-01-04T11:19:27.968Z, 28.89
2023-01-04T11:20:30.555Z, 30.08
2023-01-04T11:21:28.005Z, 34.96
2023-01-04T11:22:28.069Z, 39.28
2023-01-04T11:23:28.007Z, 47.32
2023-01-04T11:24:32.588Z, 51.06
2023-01-04T11:25:36.494Z, 51.75
2023-01-04T11:26:28.036Z, 51.48
2023-01-04T11:27:28.066Z, 51.15
2023-01-04T11:28:28.071Z, 50.74
2023-01-04T11:29:28.089Z, 50.34
2023-01-04T11:30:28.081Z, 49.98
2023-01-04T11:31:28.312Z, 49.66
2023-01-04T11:32:28.158Z, 49.38
2023-01-04T11:33:28.213Z, 49.13
2023-01-04T11:34:28.205Z, 48.90
2023-01-04T11:35:28.216Z, 48.66
2023-01-04T11:36:28.203Z, 48.42
2023-01-04T11:37:28.342Z, 48.20
2023-01-04T11:38:28.345Z, 47.97
2023-01-04T11:39:28.318Z, 47.80
2023-01-04T11:40:28.334Z, 47.56
2023-01-04T11:41:28.318Z, 47.34
2023-01-04T11:42:28.333Z, 47.14
2023-01-04T11:43:28.329Z, 46.96
2023-01-04T11:44:28.317Z, 46.74
2023-01-04T11:45:28.356Z, 46.54
2023-01-04T11:46:28.406Z, 46.39
2023-01-04T11:47:31.462Z, 46.25
2023-01-04T11:48:28.383Z, 46.02
2023-01-04T11:49:28.375Z, 45.87
2023-01-04T11:50:28.374Z, 45.68
2023-01-04T11:51:28.386Z, 45.52
2023-01-04T11:52:28.420Z, 45.29
2023-01-04T11:53:28.522Z, 45.12
2023-01-04T11:54:28.531Z, 44.97
2023-01-04T11:55:28.488Z, 44.84
2023-01-04T11:56:28.522Z, 44.65
2023-01-04T11:57:28.484Z, 44.49
2023-01-04T11:58:28.571Z, 44.34
2023-01-04T11:59:28.540Z, 44.20
2023-01-04T12:00:28.561Z, 44.06
2023-01-04T12:01:28.636Z, 43.88
2023-01-04T12:02:59.974Z, 43.79
2023-01-04T12:03:28.577Z, 43.66
2023-01-04T12:04:29.077Z, 43.62
2023-01-04T12:05:30.203Z, 43.47
2023-01-04T12:06:28.642Z, 43.34
2023-01-04T12:07:28.702Z, 43.23
2023-01-04T12:08:28.681Z, 43.11
2023-01-04T12:09:28.666Z, 42.98
2023-01-04T12:10:28.750Z, 42.87
2023-01-04T12:11:28.739Z, 42.80
2023-01-04T12:12:28.775Z, 42.68
2023-01-04T12:13:28.820Z, 42.63
2023-01-04T12:14:28.788Z, 42.50
2023-01-04T12:15:28.814Z, 42.35
2023-01-04T12:16:28.777Z, 42.20
2023-01-04T12:17:28.856Z, 42.09
2023-01-04T12:18:28.844Z, 41.97
2023-01-04T12:19:28.847Z, 41.87
2023-01-04T12:20:28.844Z, 41.78
2023-01-04T12:21:28.823Z, 41.70
2023-01-04T12:22:28.855Z, 41.57
2023-01-04T12:23:28.870Z, 41.47
2023-01-04T12:24:28.879Z, 41.34
2023-01-04T12:25:28.885Z, 41.30
2023-01-04T12:26:28.892Z, 41.16
2023-01-04T12:27:28.929Z, 41.08
2023-01-04T12:28:28.933Z, 40.98
2023-01-04T12:29:29.023Z, 40.90
2023-01-04T12:30:28.981Z, 40.82
2023-01-04T12:31:29.048Z, 40.73